createdAt,value
2017-06-04T00:01:14.338Z,44.83
2017-06-04T00:03:51.105Z,42.65
2017-06-04T00:06:21.957Z,44.50
2017-06-04T00:08:50.793Z,43.40
2017-06-04T00:11:22.145Z,45.20
2017-06-04T00:13:52.737Z,42.50
2017-06-04T00:16:21.449Z,43.55
2017-06-04T00:18:54.946Z,42.75
2017-06-04T00:21:26.253Z,43.90
2017-06-04T00:23:56.994Z,44.42
2017-06-04T00:26:26.505Z,44.35
2017-06-04T00:28:55.679Z,43.45
2017-06-04T00:31:29.185Z,41.55
2017-06-04T00:33:58.392Z,42.78
2017-06-04T00:36:32.222Z,41.90
2017-06-04T00:39:01.360Z,40.75
2017-06-04T00:41:31.862Z,40.45
2017-06-04T00:44:02.798Z,38.97
2017-06-04T00:46:33.726Z,38.90
2017-06-04T00:49:04.721Z,37.92
2017-06-04T00:51:37.978Z,39.28
2017-06-04T00:54:07.205Z,40.15
2017-06-04T00:56:40.869Z,39.85
2017-06-04T00:59:12.698Z,37.20
2017-06-04T01:01:43.790Z,39.00
2017-06-04T01:04:15.003Z,37.78
2017-06-04T01:06:43.632Z,35.40
2017-06-04T01:09:12.429Z,31.77
2017-06-04T01:11:43.466Z,32.25
2017-06-04T01:14:14.045Z,28.75
2017-06-04T01:16:44.977Z,25.98
2017-06-04T01:19:15.533Z,23.02
2017-06-04T01:21:44.410Z,20.15
2017-06-04T01:24:20.349Z,20.83
2017-06-04T01:26:51.031Z,18.48
2017-06-04T01:29:22.290Z,19.90
2017-06-04T01:31:51.385Z,18.85
2017-06-04T01:34:20.305Z,19.33
2017-06-04T01:36:54.249Z,19.15
2017-06-04T01:39:25.751Z,21.45
2017-06-04T01:41:57.105Z,22.13
2017-06-04T01:44:39.512Z,23.55
2017-06-04T01:47:09.117Z,25.20
2017-06-04T01:49:39.584Z,23.58
2017-06-04T01:52:10.541Z,23.65
2017-06-04T01:54:41.417Z,23.92
2017-06-04T01:57:14.806Z,23.77
2017-06-04T01:59:43.982Z,23.70
2017-06-04T02:02:14.453Z,23.67
2017-06-04T02:04:45.737Z,21.20
2017-06-04T02:07:17.169Z,20.70
2017-06-04T02:09:48.269Z,20.15
2017-06-04T02:12:19.118Z,17.20
2017-06-04T02:14:49.988Z,16.27
2017-06-04T02:17:18.779Z,17.58
2017-06-04T02:19:47.433Z,16.95
2017-06-04T02:22:18.468Z,17.42
2017-06-04T02:24:47.420Z,18.52
2017-06-04T02:27:18.261Z,19.42
2017-06-04T02:29:49.502Z,19.90
2017-06-04T02:32:18.837Z,20.77
2017-06-04T02:34:49.821Z,19.60
2017-06-04T02:37:20.361Z,21.35
2017-06-04T02:39:56.674Z,22.05
2017-06-04T02:42:27.205Z,22.50
2017-06-04T02:44:58.122Z,22.83
2017-06-04T02:47:28.741Z,24.30
2017-06-04T02:50:02.510Z,24.90
2017-06-04T02:52:31.437Z,24.35
2017-06-04T02:55:02.302Z,24.40
2017-06-04T02:57:33.113Z,26.73
2017-06-04T03:00:05.347Z,25.98
2017-06-04T03:02:34.785Z,25.55
2017-06-04T03:05:05.933Z,25.35
2017-06-04T03:07:36.457Z,25.55
2017-06-04T03:10:07.293Z,26.15
2017-06-04T03:12:38.244Z,24.98
2017-06-04T03:15:12.076Z,25.75
2017-06-04T03:17:43.114Z,25.62
2017-06-04T03:20:13.965Z,26.37
2017-06-04T03:22:44.894Z,26.12
2017-06-04T03:25:13.722Z,26.35
2017-06-04T03:27:44.448Z,26.90
2017-06-04T03:30:15.566Z,26.12
2017-06-04T03:32:43.267Z,27.15
2017-06-04T03:35:29.590Z,27.33
2017-06-04T03:37:57.614Z,26.15
2017-06-04T03:40:29.241Z,26.37
2017-06-04T03:42:57.615Z,28.52
2017-06-04T03:45:26.476Z,26.65
2017-06-04T03:47:54.113Z,26.92
2017-06-04T03:50:21.725Z,28.40
2017-06-04T03:52:50.158Z,27.08
2017-06-04T03:55:42.273Z,28.30
2017-06-04T03:58:09.866Z,28.42
2017-06-04T04:00:37.464Z,28.55
2017-06-04T04:03:08.906Z,29.37
2017-06-04T04:05:56.502Z,28.75
2017-06-04T04:08:24.068Z,29.35
2017-06-04T04:10:51.669Z,29.40
2017-06-04T04:13:19.313Z,28.42
2017-06-04T04:15:46.861Z,28.55
2017-06-04T04:18:14.457Z,29.60
2017-06-04T04:20:42.937Z,29.25
2017-06-04T04:23:10.541Z,27.87
2017-06-04T04:25:39.838Z,29.15
2017-06-04T04:28:07.402Z,29.35
2017-06-04T04:30:34.997Z,29.87
2017-06-04T04:33:03.120Z,31.05
2017-06-04T04:35:30.721Z,31.25
2017-06-04T04:37:58.819Z,29.80
2017-06-04T04:40:26.645Z,30.15
2017-06-04T04:42:54.217Z,28.83
2017-06-04T04:45:21.848Z,31.30
2017-06-04T04:47:49.589Z,32.00
2017-06-04T04:50:18.116Z,31.25
2017-06-04T04:52:45.713Z,31.30
2017-06-04T04:55:13.259Z,29.60
2017-06-04T04:57:40.953Z,34.28
2017-06-04T05:00:09.336Z,32.13
2017-06-04T05:02:40.609Z,32.92
2017-06-04T05:05:08.225Z,33.97
2017-06-04T05:07:35.828Z,32.45
2017-06-04T05:10:03.794Z,35.80
2017-06-04T05:12:31.393Z,35.88
2017-06-04T05:14:58.993Z,37.78
2017-06-04T05:17:27.050Z,36.38
2017-06-04T05:19:59.698Z,37.55
2017-06-04T05:22:27.362Z,40.38
2017-06-04T05:25:13.489Z,36.20
2017-06-04T05:27:43.090Z,37.55
2017-06-04T05:30:10.692Z,37.92
2017-06-04T05:32:38.557Z,38.53
2017-06-04T05:35:06.169Z,36.85
2017-06-04T05:37:34.500Z,36.08
2017-06-04T05:40:02.095Z,36.40
2017-06-04T05:42:29.709Z,35.30
2017-06-04T05:45:04.805Z,36.50
2017-06-04T05:47:33.650Z,37.40
2017-06-04T05:50:01.242Z,37.08
2017-06-04T05:52:28.886Z,37.40
2017-06-04T05:54:56.490Z,37.60
2017-06-04T05:57:24.081Z,35.40
2017-06-04T05:59:52.431Z,35.67
2017-06-04T06:02:20.866Z,33.85
2017-06-04T06:04:48.477Z,34.28
2017-06-04T06:07:16.069Z,35.10
2017-06-04T06:09:44.982Z,36.92
2017-06-04T06:12:12.589Z,35.40
2017-06-04T06:14:40.201Z,36.60
2017-06-04T06:17:32.619Z,34.58
2017-06-04T06:20:00.235Z,35.50
2017-06-04T06:22:27.886Z,33.42
2017-06-04T06:24:55.488Z,34.95
2017-06-04T06:27:28.293Z,36.17
2017-06-04T06:29:56.661Z,34.28
2017-06-04T06:32:24.283Z,34.50
2017-06-04T06:34:51.982Z,32.25
2017-06-04T06:37:19.577Z,30.60
2017-06-04T06:39:47.357Z,31.50
2017-06-04T06:42:14.968Z,31.35
2017-06-04T06:44:42.638Z,29.65
2017-06-04T06:47:10.961Z,28.73
2017-06-04T06:49:38.544Z,29.17
2017-06-04T06:52:06.601Z,29.77
2017-06-04T06:54:34.197Z,29.05
2017-06-04T06:57:01.763Z,26.52
2017-06-04T06:59:30.952Z,27.98
2017-06-04T07:01:58.569Z,27.50
2017-06-04T07:04:26.176Z,26.25
2017-06-04T07:06:54.613Z,26.73
2017-06-04T07:09:22.222Z,27.13
2017-06-04T07:11:53.106Z,24.25
2017-06-04T07:14:37.396Z,24.12
2017-06-04T07:17:11.349Z,25.00
2017-06-04T07:19:42.054Z,25.65
2017-06-04T07:22:13.022Z,24.33
2017-06-04T07:24:41.449Z,25.02
2017-06-04T07:27:09.041Z,25.95
2017-06-04T07:29:36.679Z,24.10
2017-06-04T07:32:04.282Z,25.42
2017-06-04T07:34:32.657Z,25.60
2017-06-04T07:37:01.139Z,25.17
2017-06-04T07:39:29.508Z,26.48
2017-06-04T07:41:57.144Z,24.42
2017-06-04T07:44:24.740Z,24.58
2017-06-04T07:46:53.140Z,26.83
2017-06-04T07:49:21.215Z,28.00
2017-06-04T07:51:48.812Z,27.67
2017-06-04T07:54:16.408Z,28.67
2017-06-04T07:56:44.113Z,28.95
2017-06-04T07:59:11.670Z,30.60
2017-06-04T08:01:39.598Z,32.80
2017-06-04T08:04:07.214Z,34.72
2017-06-04T08:06:36.258Z,32.83
2017-06-04T08:09:04.825Z,32.20
2017-06-04T08:11:32.421Z,32.80
2017-06-04T08:14:00.268Z,33.08
2017-06-04T08:16:29.555Z,32.28
2017-06-04T08:18:59.635Z,31.58
2017-06-04T08:21:27.265Z,30.05
2017-06-04T08:24:02.403Z,29.85
2017-06-04T08:26:31.842Z,27.30
2017-06-04T08:28:59.434Z,26.37
2017-06-04T08:31:27.632Z,27.50
2017-06-04T08:33:55.206Z,26.90
2017-06-04T08:36:23.565Z,26.60
2017-06-04T08:45:01.353Z,25.70
2017-06-04T08:47:28.914Z,24.02
2017-06-04T08:49:56.514Z,27.50
2017-06-04T08:52:24.390Z,29.40
2017-06-04T08:54:51.993Z,31.37
2017-06-04T08:57:30.489Z,30.33
2017-06-04T08:59:58.093Z,29.83
2017-06-04T09:02:25.707Z,30.70
2017-06-04T09:04:53.861Z,28.20
2017-06-04T09:07:21.557Z,28.45
2017-06-04T09:10:05.315Z,26.30
2017-06-04T09:12:33.042Z,28.42
2017-06-04T09:15:00.661Z,28.02
2017-06-04T09:17:28.274Z,30.60
2017-06-04T09:19:56.004Z,30.77
2017-06-04T09:22:23.625Z,31.90
2017-06-04T09:24:51.589Z,30.00
2017-06-04T09:27:19.197Z,29.00
2017-06-04T09:29:46.833Z,31.75
2017-06-04T09:32:15.219Z,31.58
2017-06-04T09:34:42.871Z,30.30
2017-06-04T09:37:10.473Z,30.60
2017-06-04T09:39:38.517Z,27.25
2017-06-04T09:42:07.424Z,28.05
2017-06-04T09:44:34.995Z,28.00
2017-06-04T09:47:02.584Z,25.88
2017-06-04T09:49:30.316Z,25.70
2017-06-04T09:51:57.961Z,25.80
2017-06-04T09:54:26.325Z,25.17
2017-06-04T09:56:54.397Z,24.40
2017-06-04T09:59:22.094Z,24.20
2017-06-04T10:01:49.666Z,24.25
2017-06-04T10:04:17.363Z,25.55
2017-06-04T10:06:45.220Z,24.75
2017-06-04T10:09:13.009Z,24.08
2017-06-04T10:11:40.605Z,22.98
2017-06-04T10:14:08.377Z,21.60
2017-06-04T10:16:36.042Z,20.62
2017-06-04T10:19:03.777Z,20.85
2017-06-04T10:21:32.157Z,19.55
2017-06-04T10:24:00.577Z,19.23
2017-06-04T10:26:28.255Z,18.85
2017-06-04T10:28:55.948Z,15.10
2017-06-04T10:31:23.542Z,16.10
2017-06-04T10:33:51.252Z,14.32
2017-06-04T10:36:18.981Z,15.38
2017-06-04T10:38:46.904Z,13.70
2017-06-04T10:41:14.459Z,11.40
2017-06-04T10:43:42.329Z,9.18
2017-06-04T10:46:09.940Z,7.00
2017-06-04T10:48:40.788Z,6.30
2017-06-04T10:51:08.392Z,5.65
2017-06-04T10:53:35.993Z,5.67
2017-06-04T10:56:03.701Z,6.43
2017-06-04T10:58:31.384Z,5.97
2017-06-04T11:00:59.017Z,6.60
2017-06-04T11:03:26.612Z,5.43
2017-06-04T11:05:54.452Z,5.20
2017-06-04T11:08:22.048Z,5.00
2017-06-04T11:10:50.458Z,4.60
2017-06-04T11:13:18.014Z,4.20
2017-06-04T11:15:45.567Z,5.30
2017-06-04T11:18:13.340Z,4.60
2017-06-04T11:20:41.454Z,4.77
2017-06-04T11:23:09.134Z,5.70
2017-06-04T11:25:36.704Z,5.73
2017-06-04T11:28:04.626Z,4.90
2017-06-04T11:30:32.224Z,6.50
2017-06-04T11:32:59.825Z,5.63
2017-06-04T11:35:27.685Z,5.73
2017-06-04T11:37:55.387Z,6.93
2017-06-04T11:40:23.381Z,7.13
2017-06-04T11:42:50.951Z,7.47
2017-06-04T11:45:18.537Z,6.77
2017-06-04T11:47:47.090Z,6.40
2017-06-04T11:50:14.706Z,7.00
2017-06-04T11:52:42.881Z,6.30
2017-06-04T11:55:10.468Z,6.40
2017-06-04T11:57:38.217Z,6.90
2017-06-04T12:00:05.830Z,8.20
2017-06-04T12:02:33.455Z,7.70
2017-06-04T12:05:01.485Z,8.10
2017-06-04T12:07:29.038Z,6.80
2017-06-04T12:09:57.369Z,7.30
2017-06-04T12:12:25.293Z,8.67
2017-06-04T12:14:52.893Z,8.93
2017-06-04T12:17:20.541Z,8.37
2017-06-04T12:19:48.317Z,8.77
2017-06-04T12:22:15.913Z,8.10
2017-06-04T12:24:44.809Z,9.23
2017-06-04T12:27:13.213Z,10.10
2017-06-04T12:29:40.809Z,9.80
2017-06-04T12:32:08.946Z,9.20
2017-06-04T12:34:36.504Z,8.03
2017-06-04T12:37:04.109Z,7.40
2017-06-04T12:39:32.101Z,7.63
2017-06-04T12:41:59.718Z,7.93
2017-06-04T12:44:27.313Z,8.30
2017-06-04T12:46:55.007Z,7.55
2017-06-04T12:49:23.376Z,9.33
2017-06-04T12:51:51.470Z,8.93
2017-06-04T12:54:19.081Z,8.50
2017-06-04T12:56:46.705Z,9.00
2017-06-04T12:59:14.408Z,9.02
2017-06-04T13:01:41.966Z,9.00
2017-06-04T13:04:09.914Z,8.10
2017-06-04T13:06:37.513Z,9.55
2017-06-04T13:09:05.085Z,9.85
2017-06-04T13:11:33.253Z,10.32
2017-06-04T13:14:00.853Z,8.98
2017-06-04T13:16:28.832Z,11.38
2017-06-04T13:18:56.445Z,11.98
2017-06-04T13:21:24.057Z,11.27
2017-06-04T13:23:51.701Z,12.77
2017-06-04T13:26:19.352Z,10.93
2017-06-04T13:28:46.993Z,10.80
2017-06-04T13:31:15.435Z,11.60
2017-06-04T13:33:43.661Z,11.40
2017-06-04T13:36:12.041Z,11.35
2017-06-04T13:38:39.653Z,10.75
2017-06-04T13:41:07.306Z,11.43
2017-06-04T13:43:35.368Z,10.68
2017-06-04T13:46:03.018Z,11.30
2017-06-04T13:48:30.975Z,10.60
2017-06-04T13:51:20.130Z,10.52
2017-06-04T13:53:55.638Z,9.68
2017-06-04T13:56:23.409Z,9.07
2017-06-04T13:58:51.027Z,9.57
2017-06-04T14:01:18.651Z,9.20
2017-06-04T14:03:46.385Z,8.95
2017-06-04T14:06:14.093Z,8.60
2017-06-04T14:08:42.428Z,9.20
2017-06-04T14:11:10.081Z,8.25
2017-06-04T14:13:43.790Z,8.45
2017-06-04T14:16:13.373Z,8.68
2017-06-04T14:18:41.047Z,8.18
2017-06-04T14:21:12.734Z,7.87
2017-06-04T14:23:40.293Z,7.65
2017-06-04T14:26:07.916Z,8.40
2017-06-04T14:28:35.582Z,8.15
2017-06-04T14:31:03.185Z,7.85
2017-06-04T14:36:23.967Z,7.53
2017-06-04T14:39:08.429Z,7.68
2017-06-04T14:41:36.257Z,8.70
2017-06-04T14:44:05.369Z,7.93
2017-06-04T14:46:33.017Z,8.15
2017-06-04T14:49:00.669Z,8.80
2017-06-04T14:51:31.917Z,8.93
2017-06-04T14:56:58.631Z,8.77
2017-06-04T14:59:36.669Z,8.43
2017-06-04T15:02:04.462Z,9.02
2017-06-04T15:10:16.069Z,9.00
2017-06-04T15:12:44.536Z,8.60
2017-06-04T15:15:12.093Z,8.18
2017-06-04T15:17:39.700Z,7.40
2017-06-04T15:20:12.113Z,7.20
2017-06-04T15:22:39.670Z,6.93
2017-06-04T15:25:07.319Z,6.50
2017-06-04T15:27:35.142Z,6.00
2017-06-04T15:30:02.791Z,7.10
2017-06-04T15:32:30.392Z,7.07
2017-06-04T15:34:58.539Z,6.40
2017-06-04T15:37:26.470Z,6.35
2017-06-04T15:39:54.072Z,5.20
2017-06-04T15:42:22.897Z,6.03
2017-06-04T15:44:50.908Z,5.93
2017-06-04T15:47:21.054Z,4.90
2017-06-04T15:49:49.452Z,5.45
2017-06-04T16:01:07.905Z,5.15
2017-06-04T16:03:35.513Z,5.03
2017-06-04T16:06:03.921Z,4.43
2017-06-04T16:08:31.530Z,5.10
2017-06-04T16:10:59.433Z,5.20
2017-06-04T16:13:27.787Z,4.85
2017-06-04T16:15:57.582Z,4.37
2017-06-04T16:18:25.974Z,4.20
2017-06-04T16:20:54.574Z,4.90
2017-06-04T16:23:22.571Z,4.37
2017-06-04T16:25:50.189Z,4.30
2017-06-04T16:28:17.820Z,5.10
2017-06-04T16:30:45.485Z,4.97
2017-06-04T16:33:13.303Z,5.10
2017-06-04T16:35:41.270Z,5.30
2017-06-04T16:38:08.860Z,4.97
2017-06-04T16:40:37.349Z,4.53
2017-06-04T16:43:04.995Z,4.65
2017-06-04T16:45:33.190Z,4.62
2017-06-04T16:48:00.807Z,4.57
2017-06-04T16:50:28.390Z,4.22
2017-06-04T16:53:01.193Z,4.75
2017-06-04T16:55:29.231Z,5.32
2017-06-04T16:57:57.821Z,4.95
2017-06-04T17:00:25.421Z,4.53
2017-06-04T17:02:53.317Z,4.50
2017-06-04T17:05:20.954Z,5.35
2017-06-04T17:07:48.557Z,4.80
2017-06-04T17:10:17.241Z,4.62
2017-06-04T17:12:44.802Z,5.35
2017-06-04T17:15:12.420Z,5.70
2017-06-04T17:17:40.110Z,4.45
2017-06-04T17:20:07.714Z,5.10
2017-06-04T17:22:35.417Z,4.62
2017-06-04T17:25:03.014Z,5.43
2017-06-04T17:27:36.824Z,5.72
2017-06-04T17:30:04.371Z,5.12
2017-06-04T17:32:31.970Z,5.72
2017-06-04T17:34:59.675Z,5.47
2017-06-04T17:37:27.597Z,5.60
2017-06-04T17:39:55.163Z,5.53
2017-06-04T17:42:22.718Z,5.25
2017-06-04T17:44:51.360Z,6.37
2017-06-04T17:47:18.918Z,5.47
2017-06-04T17:49:46.505Z,5.00
2017-06-04T17:52:14.875Z,5.50
2017-06-04T17:54:42.914Z,5.60
2017-06-04T17:57:10.561Z,5.25
2017-06-04T17:59:38.114Z,6.05
2017-06-04T18:02:05.896Z,5.75
2017-06-04T18:04:33.557Z,6.25
2017-06-04T18:07:01.115Z,6.05
2017-06-04T18:09:28.745Z,6.05
2017-06-04T18:11:57.737Z,5.68
2017-06-04T18:14:26.748Z,6.35
2017-06-04T18:16:55.366Z,5.57
2017-06-04T18:19:22.992Z,5.70
2017-06-04T18:21:50.797Z,5.10
2017-06-04T18:24:19.733Z,5.93
2017-06-04T18:27:03.033Z,5.20
2017-06-04T18:29:31.010Z,5.30
2017-06-04T18:31:58.561Z,5.85
2017-06-04T18:34:30.827Z,5.57
2017-06-04T18:37:03.362Z,5.00
2017-06-04T18:39:34.695Z,4.28
2017-06-04T18:42:07.371Z,5.10
2017-06-04T18:44:39.604Z,5.30
2017-06-04T18:47:12.185Z,4.85
2017-06-04T18:49:44.088Z,4.70
2017-06-04T18:52:18.200Z,4.97
2017-06-04T18:54:55.414Z,5.30
2017-06-04T18:57:29.448Z,4.93
2017-06-04T19:00:01.587Z,5.30
2017-06-04T19:02:33.914Z,5.20
2017-06-04T19:05:08.220Z,5.03
2017-06-04T19:07:36.461Z,4.95
2017-06-04T19:10:04.915Z,5.40
2017-06-04T19:12:33.133Z,6.10
2017-06-04T19:15:01.249Z,6.25
2017-06-04T19:17:29.506Z,5.45
2017-06-04T19:19:57.557Z,5.37
2017-06-04T19:22:34.785Z,5.00
2017-06-04T19:25:09.364Z,4.72
2017-06-04T19:27:45.065Z,4.95
2017-06-04T19:30:18.830Z,4.65
2017-06-04T19:32:52.939Z,4.60
2017-06-04T19:35:27.361Z,4.93
2017-06-04T19:38:04.109Z,4.85
2017-06-04T19:40:37.488Z,5.20
2017-06-04T19:43:11.321Z,5.30
2017-06-04T19:45:45.002Z,5.30
2017-06-04T19:48:19.273Z,4.25
2017-06-04T19:50:53.974Z,4.68
2017-06-04T19:53:29.083Z,5.95
2017-06-04T19:56:03.271Z,6.85
2017-06-04T19:58:43.116Z,6.45
2017-06-04T20:01:17.871Z,5.60
2017-06-04T20:03:52.044Z,5.15
2017-06-04T20:06:26.887Z,5.28
2017-06-04T20:09:00.966Z,5.80
2017-06-04T20:11:33.131Z,6.20
2017-06-04T20:14:05.300Z,6.25
2017-06-04T20:19:10.572Z,6.10
2017-06-04T20:21:42.875Z,5.53
2017-06-04T20:24:15.295Z,5.90
2017-06-04T20:26:47.660Z,5.95
2017-06-04T20:29:20.719Z,5.45
2017-06-04T20:31:52.715Z,6.60
2017-06-04T20:34:25.553Z,6.50
2017-06-04T20:36:57.936Z,6.72
2017-06-04T20:39:30.889Z,6.65
2017-06-04T20:42:03.506Z,5.80
2017-06-04T20:44:36.494Z,6.25
2017-06-04T20:47:09.325Z,4.87
2017-06-04T20:49:41.559Z,4.60
2017-06-04T20:52:14.692Z,4.20
2017-06-04T20:54:47.061Z,4.35
2017-06-04T20:57:18.998Z,3.80
2017-06-04T20:59:51.665Z,4.10
2017-06-04T21:02:24.705Z,3.72
2017-06-04T21:04:58.173Z,4.03
2017-06-04T21:07:31.120Z,4.70
2017-06-04T21:10:03.650Z,4.10
2017-06-04T21:12:35.908Z,4.40
2017-06-04T21:15:08.639Z,3.72
2017-06-04T21:17:41.567Z,4.18
2017-06-04T21:20:17.991Z,4.25
2017-06-04T21:22:50.065Z,4.97
2017-06-04T21:25:22.335Z,5.30
2017-06-04T21:27:55.486Z,5.05
2017-06-04T21:30:28.760Z,5.47
2017-06-04T21:33:00.498Z,5.18
2017-06-04T21:35:33.579Z,4.70
2017-06-04T21:38:06.077Z,4.60
2017-06-04T21:40:39.123Z,4.55
2017-06-04T21:43:17.145Z,3.97
2017-06-04T21:45:49.796Z,4.30
2017-06-04T21:48:22.049Z,3.70
2017-06-04T21:50:54.119Z,3.72
2017-06-04T21:53:26.437Z,3.80
2017-06-04T21:55:58.508Z,4.20
2017-06-04T21:58:30.588Z,4.10
2017-06-04T22:01:03.270Z,3.75
2017-06-04T22:03:36.201Z,5.50
2017-06-04T22:06:09.397Z,5.43
2017-06-04T22:08:41.779Z,5.40
2017-06-04T22:11:14.829Z,5.00
2017-06-04T22:13:53.622Z,4.97
2017-06-04T22:16:25.855Z,4.18
2017-06-04T22:18:58.099Z,3.75
2017-06-04T22:21:30.459Z,3.60
2017-06-04T22:24:02.750Z,3.92
2017-06-04T22:26:35.345Z,4.28
2017-06-04T22:29:07.655Z,3.40
2017-06-04T22:31:40.832Z,3.22
2017-06-04T22:34:12.432Z,3.17
2017-06-04T22:36:44.722Z,3.70
2017-06-04T22:39:17.209Z,4.10
2017-06-04T22:41:49.882Z,4.00
2017-06-04T22:44:22.246Z,3.75
2017-06-04T22:46:54.496Z,4.32
2017-06-04T22:49:26.644Z,5.00
2017-06-04T22:52:00.078Z,5.00
2017-06-04T22:54:32.232Z,6.15
2017-06-04T22:57:04.087Z,5.97
2017-06-04T22:59:36.246Z,4.55
2017-06-04T23:02:09.239Z,3.35
2017-06-04T23:04:41.079Z,2.80
2017-06-04T23:07:14.164Z,4.05
2017-06-04T23:09:46.451Z,3.83
2017-06-04T23:12:18.851Z,4.07
2017-06-04T23:14:52.088Z,3.70
2017-06-04T23:17:24.014Z,3.65
2017-06-04T23:19:56.190Z,3.30
2017-06-04T23:22:28.333Z,3.50
2017-06-04T23:25:00.966Z,3.72
2017-06-04T23:27:33.508Z,3.70
2017-06-04T23:30:05.765Z,3.78
2017-06-04T23:32:37.887Z,3.42
2017-06-04T23:35:12.381Z,3.70
2017-06-04T23:37:44.677Z,3.58
2017-06-04T23:40:16.673Z,3.85
2017-06-04T23:42:49.045Z,5.00
2017-06-04T23:45:26.139Z,4.65
2017-06-04T23:47:58.439Z,4.40
2017-06-04T23:50:30.818Z,4.28
2017-06-04T23:53:03.821Z,4.57
2017-06-04T23:55:36.467Z,4.43
2017-06-04T23:58:08.261Z,5.32
